createdAt,value
2022-11-19T00:00:11.177Z,90.99
2022-11-19T00:02:39.178Z,90.21
2022-11-19T00:05:07.545Z,91.55
2022-11-19T00:07:35.637Z,91.30
2022-11-19T00:10:05.628Z,89.00
2022-11-19T00:12:51.351Z,90.27
2022-11-19T00:15:19.348Z,89.86
2022-11-19T00:17:47.422Z,90.59
2022-11-19T00:20:15.630Z,90.65
2022-11-19T00:22:43.654Z,90.29
2022-11-19T00:25:13.200Z,91.10
2022-11-19T00:27:41.184Z,91.80
2022-11-19T00:30:32.620Z,92.77
2022-11-19T00:32:57.915Z,93.70
2022-11-19T00:35:25.954Z,92.99
2022-11-19T00:37:53.950Z,92.79
2022-11-19T00:40:23.338Z,92.47
2022-11-19T00:43:05.223Z,94.18
2022-11-19T00:45:33.316Z,95.08
2022-11-19T00:48:01.344Z,94.96
2022-11-19T00:50:29.352Z,95.19
2022-11-19T00:52:57.416Z,96.56
2022-11-19T00:55:26.951Z,98.06
2022-11-19T00:57:54.942Z,98.23
2022-11-19T01:00:23.411Z,97.11
2022-11-19T01:02:51.448Z,95.97
2022-11-19T01:05:19.651Z,96.52
2022-11-19T01:07:47.907Z,97.77
2022-11-19T01:10:16.173Z,97.75
2022-11-19T01:12:59.447Z,98.23
2022-11-19T01:15:27.509Z,99.41
2022-11-19T01:17:55.555Z,99.53
2022-11-19T01:20:23.717Z,98.64
2022-11-19T01:22:51.828Z,98.89
2022-11-19T01:25:19.986Z,97.32
2022-11-19T01:27:49.406Z,98.22
2022-11-19T01:30:17.653Z,98.61
2022-11-19T01:32:45.718Z,97.96
2022-11-19T01:35:13.774Z,99.51
2022-11-19T01:37:41.810Z,98.40
2022-11-19T01:40:11.406Z,99.81
2022-11-19T01:42:51.383Z,99.24
2022-11-19T01:45:28.246Z,100.00
2022-11-19T01:47:58.784Z,100.00
2022-11-19T01:50:27.956Z,100.00
2022-11-19T01:52:56.186Z,100.00
2022-11-19T01:55:24.265Z,100.00
2022-11-19T01:57:55.771Z,100.00
2022-11-19T02:00:25.322Z,100.00
2022-11-19T02:02:53.667Z,100.00
2022-11-19T02:05:22.067Z,100.00
2022-11-19T02:07:53.748Z,100.00
2022-11-19T02:10:26.155Z,100.00
2022-11-19T02:12:59.532Z,100.00
2022-11-19T02:15:36.571Z,100.00
2022-11-19T02:18:22.619Z,100.00
2022-11-19T02:21:12.634Z,100.00
2022-11-19T02:24:11.157Z,100.00
2022-11-19T02:27:14.449Z,99.97
2022-11-19T02:29:59.625Z,100.00
2022-11-19T02:32:32.880Z,100.00
2022-11-19T02:35:07.582Z,100.00
2022-11-19T02:37:41.613Z,100.00
2022-11-19T02:40:15.214Z,100.00
2022-11-19T02:42:47.175Z,99.67
2022-11-19T02:45:17.967Z,98.70
2022-11-19T02:47:47.409Z,97.09
2022-11-19T02:50:18.295Z,97.51
2022-11-19T02:52:47.191Z,99.63
2022-11-19T02:55:16.341Z,99.31
2022-11-19T02:57:46.850Z,99.51
2022-11-19T03:00:34.227Z,97.68
2022-11-19T03:03:23.206Z,97.56
2022-11-19T03:05:53.500Z,98.91
2022-11-19T03:08:21.656Z,98.54
2022-11-19T03:10:55.527Z,97.44
2022-11-19T03:13:43.311Z,99.76
2022-11-19T03:16:36.438Z,97.18
2022-11-19T03:19:07.096Z,98.44
2022-11-19T03:21:38.218Z,99.47
2022-11-19T03:24:08.764Z,98.57
2022-11-19T03:26:39.716Z,98.34
2022-11-19T03:29:10.391Z,98.12
2022-11-19T03:31:42.290Z,98.65
2022-11-19T03:34:13.289Z,97.76
2022-11-19T03:36:42.677Z,97.31
2022-11-19T03:39:13.466Z,97.77
2022-11-19T03:41:42.786Z,97.03
2022-11-19T03:44:15.571Z,98.99
2022-11-19T03:46:45.739Z,96.07
2022-11-19T03:49:14.612Z,95.85
2022-11-19T03:51:45.486Z,97.14
2022-11-19T03:54:13.579Z,97.01
2022-11-19T03:56:42.661Z,97.86
2022-11-19T03:59:11.729Z,98.64
2022-11-19T04:01:40.446Z,98.06
2022-11-19T04:04:27.203Z,98.65
2022-11-19T04:06:55.495Z,99.86
2022-11-19T04:09:23.531Z,99.46
2022-11-19T04:14:18.568Z,98.92
2022-11-19T04:16:46.957Z,95.78
2022-11-19T04:19:18.093Z,96.20
2022-11-19T04:21:46.380Z,97.18
2022-11-19T04:24:14.490Z,95.62
2022-11-19T04:26:42.638Z,96.55
2022-11-19T04:29:10.725Z,97.46
2022-11-19T04:31:38.706Z,95.70
2022-11-19T04:34:06.912Z,95.90
2022-11-19T04:36:36.518Z,96.44
2022-11-19T04:39:04.741Z,96.14
2022-11-19T04:41:32.743Z,95.91
2022-11-19T04:44:01.020Z,94.81
2022-11-19T04:46:29.011Z,94.60
2022-11-19T04:48:57.076Z,96.19
2022-11-19T04:51:25.138Z,95.98
2022-11-19T04:53:55.361Z,94.05
2022-11-19T04:56:23.951Z,92.73
2022-11-19T04:58:52.342Z,92.16
2022-11-19T05:01:21.055Z,91.90
2022-11-19T05:03:49.449Z,91.32
2022-11-19T05:06:17.537Z,92.28
2022-11-19T05:08:45.649Z,91.03
2022-11-19T05:11:15.081Z,90.77
2022-11-19T05:13:43.137Z,90.81
2022-11-19T05:16:11.147Z,89.33
2022-11-19T05:18:39.121Z,89.34
2022-11-19T05:21:07.311Z,89.93
2022-11-19T05:23:35.334Z,88.54
2022-11-19T05:26:03.373Z,89.00
2022-11-19T05:28:39.182Z,88.28
2022-11-19T05:31:08.282Z,89.46
2022-11-19T05:33:36.451Z,90.54
2022-11-19T05:36:04.889Z,88.72
2022-11-19T05:38:32.936Z,90.08
2022-11-19T05:41:01.096Z,89.78
2022-11-19T05:43:29.096Z,89.85
2022-11-19T05:46:00.811Z,87.41
2022-11-19T05:48:28.823Z,88.78
2022-11-19T05:50:57.087Z,88.27
2022-11-19T05:53:25.100Z,89.62
2022-11-19T05:55:53.104Z,89.51
2022-11-19T05:58:21.113Z,88.21
2022-11-19T06:00:49.486Z,88.88
2022-11-19T06:03:18.923Z,88.70
2022-11-19T06:05:47.036Z,89.62
2022-11-19T06:08:15.048Z,89.40
2022-11-19T06:10:43.219Z,89.84
2022-11-19T06:13:11.258Z,89.97
2022-11-19T06:15:39.276Z,89.29
2022-11-19T06:18:07.339Z,89.27
2022-11-19T06:20:36.789Z,90.62
2022-11-19T06:23:04.831Z,89.85
2022-11-19T06:25:32.928Z,90.01
2022-11-19T06:28:00.916Z,90.55
2022-11-19T06:30:31.705Z,90.74
2022-11-19T06:32:59.746Z,89.80
2022-11-19T06:35:27.835Z,88.59
2022-11-19T06:37:57.331Z,87.54
2022-11-19T06:40:25.371Z,85.95
2022-11-19T06:42:53.432Z,86.21
2022-11-19T06:45:21.560Z,87.13
2022-11-19T06:47:50.115Z,85.21
2022-11-19T06:50:18.331Z,86.08
2022-11-19T06:52:46.441Z,85.58
2022-11-19T06:55:16.002Z,85.33
2022-11-19T06:57:44.127Z,86.27
2022-11-19T07:00:13.575Z,85.12
2022-11-19T07:02:42.089Z,84.94
2022-11-19T07:05:10.585Z,84.09
2022-11-19T07:07:38.635Z,83.79
2022-11-19T07:10:07.587Z,82.89
2022-11-19T07:12:37.007Z,82.74
2022-11-19T07:15:05.667Z,82.12
2022-11-19T07:17:33.783Z,82.68
2022-11-19T07:20:02.078Z,82.68
2022-11-19T07:22:30.130Z,82.12
2022-11-19T07:24:58.203Z,82.35
2022-11-19T07:27:26.325Z,82.15
2022-11-19T07:29:55.810Z,83.75
2022-11-19T07:32:23.846Z,81.80
2022-11-19T07:34:53.120Z,81.33
2022-11-19T07:37:21.173Z,83.54
2022-11-19T07:39:50.583Z,82.19
2022-11-19T07:42:36.498Z,82.57
2022-11-19T07:45:11.358Z,82.93
2022-11-19T07:47:39.357Z,84.26
2022-11-19T07:50:08.023Z,85.68
2022-11-19T07:52:36.348Z,84.06
2022-11-19T07:55:04.699Z,84.38
2022-11-19T07:57:32.828Z,83.54
2022-11-19T08:00:00.814Z,85.70
2022-11-19T08:02:30.224Z,84.72
2022-11-19T08:04:58.295Z,83.60
2022-11-19T08:07:26.354Z,83.45
2022-11-19T08:09:54.499Z,84.29
2022-11-19T08:12:22.590Z,82.53
2022-11-19T08:14:50.604Z,84.60
2022-11-19T08:17:36.215Z,85.85
2022-11-19T08:20:06.666Z,84.49
2022-11-19T08:22:35.945Z,83.78
2022-11-19T08:25:04.243Z,84.28
2022-11-19T08:27:32.221Z,82.13
2022-11-19T08:30:00.198Z,81.84
2022-11-19T08:32:28.243Z,81.95
2022-11-19T08:34:56.276Z,83.32
2022-11-19T08:37:25.696Z,84.06
2022-11-19T08:39:53.783Z,84.80
2022-11-19T08:42:39.143Z,83.40
2022-11-19T08:45:08.723Z,83.52
2022-11-19T08:47:37.148Z,83.43
2022-11-19T08:50:05.624Z,85.74
2022-11-19T08:52:35.069Z,84.45
2022-11-19T08:55:03.114Z,83.44
2022-11-19T08:57:31.175Z,82.06
2022-11-19T09:00:05.712Z,83.04
2022-11-19T09:02:34.395Z,82.83
2022-11-19T09:05:02.406Z,82.69
2022-11-19T09:07:30.628Z,82.40
2022-11-19T09:09:59.993Z,83.07
2022-11-19T09:12:30.810Z,82.67
2022-11-19T09:14:58.850Z,82.96
2022-11-19T09:17:26.865Z,82.79
2022-11-19T09:19:55.255Z,83.01
2022-11-19T09:22:23.355Z,84.55
2022-11-19T09:24:51.348Z,82.82
2022-11-19T09:27:20.742Z,82.26
2022-11-19T09:29:48.833Z,83.47
2022-11-19T09:32:22.472Z,82.56
2022-11-19T09:34:53.194Z,78.46
2022-11-19T09:37:21.893Z,77.64
2022-11-19T09:39:49.970Z,78.28
2022-11-19T09:42:23.647Z,77.96
2022-11-19T09:45:10.217Z,78.64
2022-11-19T09:47:48.608Z,76.80
2022-11-19T09:50:18.904Z,76.82
2022-11-19T09:52:49.743Z,76.57
2022-11-19T09:55:20.973Z,78.60
2022-11-19T09:57:52.677Z,78.14
2022-11-19T10:00:22.475Z,76.99
2022-11-19T10:02:51.051Z,75.47
2022-11-19T10:05:31.542Z,76.94
2022-11-19T10:08:09.364Z,76.54
2022-11-19T10:10:42.070Z,75.70
2022-11-19T10:13:26.158Z,76.43
2022-11-19T10:16:04.257Z,74.51
2022-11-19T10:18:39.010Z,74.82
2022-11-19T10:21:12.154Z,75.03
2022-11-19T10:23:49.564Z,74.08
2022-11-19T10:26:19.774Z,74.08
2022-11-19T10:28:55.361Z,73.71
2022-11-19T10:31:29.700Z,73.84
2022-11-19T10:34:03.963Z,73.78
2022-11-19T10:36:35.480Z,73.14
2022-11-19T10:39:07.830Z,74.42
2022-11-19T10:41:39.705Z,75.52
2022-11-19T10:44:37.261Z,74.18
2022-11-19T10:47:06.469Z,74.94
2022-11-19T10:49:37.974Z,75.45
2022-11-19T10:52:06.452Z,75.32
2022-11-19T10:54:34.782Z,75.40
2022-11-19T10:57:03.016Z,75.81
2022-11-19T10:59:33.421Z,75.14
2022-11-19T11:02:03.949Z,76.44
2022-11-19T11:04:32.035Z,76.79
2022-11-19T11:07:01.489Z,77.55
2022-11-19T11:09:34.876Z,77.23
2022-11-19T11:12:31.859Z,76.49
2022-11-19T11:15:12.858Z,75.11
2022-11-19T11:17:42.713Z,75.67
2022-11-19T11:20:23.819Z,74.49
2022-11-19T11:23:04.615Z,73.62
2022-11-19T11:25:32.930Z,73.47
2022-11-19T11:28:06.916Z,73.29
2022-11-19T11:30:36.421Z,72.96
2022-11-19T11:33:30.715Z,71.79
2022-11-19T11:36:00.744Z,72.09
2022-11-19T11:38:34.385Z,69.91
2022-11-19T11:41:42.047Z,70.75
2022-11-19T11:44:08.727Z,68.87
2022-11-19T11:46:42.036Z,67.83
2022-11-19T11:49:31.485Z,67.56
2022-11-19T11:52:06.970Z,66.56
2022-11-19T11:54:36.689Z,67.71
2022-11-19T11:57:14.780Z,67.12
2022-11-19T11:59:42.897Z,69.83
2022-11-19T12:02:22.493Z,69.95
2022-11-19T12:04:52.337Z,68.93
2022-11-19T12:07:44.551Z,68.00
2022-11-19T12:10:25.122Z,69.43
2022-11-19T12:13:01.632Z,69.86
2022-11-19T12:15:35.943Z,68.12
2022-11-19T12:18:14.699Z,68.43
2022-11-19T12:20:46.874Z,68.47
2022-11-19T12:23:26.965Z,69.26
2022-11-19T12:26:03.535Z,70.48
2022-11-19T12:28:42.457Z,69.79
2022-11-19T12:31:28.668Z,69.51
2022-11-19T12:34:16.996Z,70.07
2022-11-19T12:36:54.716Z,69.86
2022-11-19T12:39:35.457Z,70.13
2022-11-19T12:42:19.105Z,70.53
2022-11-19T12:44:56.021Z,69.81
2022-11-19T12:47:38.511Z,69.14
2022-11-19T12:50:19.330Z,70.16
2022-11-19T12:53:09.492Z,70.83
2022-11-19T12:55:43.526Z,69.02
2022-11-19T12:58:27.072Z,69.94
2022-11-19T13:01:03.598Z,70.83
2022-11-19T13:03:44.964Z,71.34
2022-11-19T13:06:18.231Z,69.61
2022-11-19T13:08:51.056Z,70.21
2022-11-19T13:11:22.567Z,70.72
2022-11-19T13:13:57.241Z,70.96
2022-11-19T13:16:28.784Z,69.65
2022-11-19T13:19:12.968Z,69.28
2022-11-19T13:21:45.753Z,69.50
2022-11-19T13:24:28.435Z,70.49
2022-11-19T13:26:59.794Z,70.85
2022-11-19T13:29:36.059Z,70.48
2022-11-19T13:32:11.583Z,70.84
2022-11-19T13:34:50.311Z,71.74
2022-11-19T13:37:26.449Z,71.14
2022-11-19T13:40:05.037Z,71.23
2022-11-19T13:43:17.257Z,71.47
2022-11-19T13:45:41.929Z,71.25
2022-11-19T13:48:22.466Z,71.33
2022-11-19T13:50:53.487Z,71.03
2022-11-19T13:53:29.911Z,70.73
2022-11-19T13:55:58.506Z,71.35
2022-11-19T13:58:31.563Z,71.45
2022-11-19T14:01:46.237Z,71.89
2022-11-19T14:04:45.900Z,71.04
2022-11-19T14:07:31.178Z,70.69
2022-11-19T14:10:09.567Z,71.47
2022-11-19T14:13:01.489Z,71.70
2022-11-19T14:16:10.430Z,71.67
2022-11-19T14:18:58.079Z,70.83
2022-11-19T14:22:12.926Z,71.42
2022-11-19T14:25:18.271Z,72.15
2022-11-19T14:27:47.920Z,71.75
2022-11-19T14:30:20.227Z,71.38
2022-11-19T14:32:52.293Z,71.65
2022-11-19T14:35:39.458Z,71.01
2022-11-19T14:38:55.101Z,71.98
2022-11-19T14:41:33.762Z,72.02
2022-11-19T14:44:11.603Z,72.50
2022-11-19T14:46:46.640Z,72.92
2022-11-19T14:49:47.405Z,72.89
2022-11-19T14:52:24.839Z,72.79
2022-11-19T14:54:56.412Z,72.50
2022-11-19T14:57:29.225Z,72.46
2022-11-19T15:00:01.414Z,72.88
2022-11-19T15:02:37.039Z,72.44
2022-11-19T15:05:09.046Z,72.26
2022-11-19T15:07:40.080Z,72.85
2022-11-19T15:10:34.975Z,72.25
2022-11-19T15:13:35.532Z,72.67
2022-11-19T15:16:08.839Z,73.28
2022-11-19T15:19:17.214Z,72.91
2022-11-19T15:22:18.804Z,72.79
2022-11-19T15:25:05.314Z,73.13
2022-11-19T15:27:43.426Z,72.95
2022-11-19T15:30:17.178Z,72.33
2022-11-19T15:33:03.844Z,72.10
2022-11-19T15:35:41.729Z,72.37
2022-11-19T15:38:20.030Z,71.25
2022-11-19T15:40:49.254Z,72.19
2022-11-19T15:43:25.547Z,73.18
2022-11-19T15:45:56.632Z,73.26
2022-11-19T15:48:29.883Z,72.90
2022-11-19T15:50:58.378Z,73.51
2022-11-19T15:53:28.216Z,74.01
2022-11-19T15:55:59.839Z,73.65
2022-11-19T15:58:32.684Z,74.23
2022-11-19T16:01:00.841Z,73.14
2022-11-19T16:03:31.800Z,73.32
2022-11-19T16:06:04.575Z,73.55
2022-11-19T16:08:33.180Z,72.87
2022-11-19T16:11:20.711Z,73.08
2022-11-19T16:14:10.095Z,73.60
2022-11-19T16:16:56.493Z,72.71
2022-11-19T16:19:26.096Z,72.80
2022-11-19T16:21:57.140Z,72.92
2022-11-19T16:24:43.194Z,73.70
2022-11-19T16:27:12.991Z,74.42
2022-11-19T16:29:42.570Z,73.32
2022-11-19T16:32:16.942Z,73.71
2022-11-19T16:34:46.805Z,74.35
2022-11-19T16:37:15.801Z,74.09
2022-11-19T16:39:45.218Z,74.53
2022-11-19T16:42:17.221Z,74.42
2022-11-19T16:44:48.235Z,74.16
2022-11-19T16:47:22.112Z,73.79
2022-11-19T16:50:01.937Z,73.82
2022-11-19T16:52:37.660Z,74.03
2022-11-19T16:55:09.867Z,74.32
2022-11-19T16:57:38.855Z,74.08
2022-11-19T17:00:18.404Z,74.23
2022-11-19T17:02:47.331Z,73.79
2022-11-19T17:05:18.837Z,74.03
2022-11-19T17:07:50.203Z,74.75
2022-11-19T17:10:30.650Z,74.54
2022-11-19T17:12:59.901Z,74.75
2022-11-19T17:15:39.759Z,74.73
2022-11-19T17:18:18.840Z,75.10
2022-11-19T17:20:58.344Z,75.68
2022-11-19T17:23:27.349Z,76.20
2022-11-19T17:25:57.256Z,76.75
2022-11-19T17:28:35.315Z,76.61
2022-11-19T17:31:07.010Z,76.21
2022-11-19T17:33:51.105Z,76.99
2022-11-19T17:36:25.823Z,76.98
2022-11-19T17:38:54.429Z,77.09
2022-11-19T17:41:39.045Z,76.83
2022-11-19T17:44:28.232Z,77.43
2022-11-19T17:46:57.106Z,76.91
2022-11-19T17:49:25.857Z,78.24
2022-11-19T17:51:58.000Z,76.96
2022-11-19T17:54:27.756Z,76.73
2022-11-19T17:56:56.222Z,76.04
2022-11-19T17:59:24.721Z,75.88
2022-11-19T18:01:54.457Z,75.54
2022-11-19T18:04:23.274Z,74.69
2022-11-19T18:06:51.833Z,74.88
2022-11-19T18:09:22.210Z,74.43
2022-11-19T18:11:51.867Z,75.30
2022-11-19T18:14:20.634Z,74.81
2022-11-19T18:16:50.106Z,74.75
2022-11-19T18:19:26.496Z,73.86
2022-11-19T18:21:56.532Z,74.87
2022-11-19T18:24:26.767Z,73.82
2022-11-19T18:26:55.904Z,73.82
2022-11-19T18:29:24.849Z,73.60
2022-11-19T18:31:53.634Z,74.36
2022-11-19T18:34:24.747Z,73.85
2022-11-19T18:36:54.752Z,73.92
2022-11-19T18:39:24.563Z,73.68
2022-11-19T18:41:55.721Z,73.02
2022-11-19T18:44:35.808Z,73.57
2022-11-19T18:47:07.215Z,73.86
2022-11-19T18:49:36.367Z,73.75
2022-11-19T18:52:07.700Z,73.32
2022-11-19T18:54:37.537Z,73.84
2022-11-19T18:57:08.148Z,73.54
2022-11-19T18:59:37.489Z,73.22
2022-11-19T19:02:06.655Z,73.53
2022-11-19T19:04:36.106Z,73.96
2022-11-19T19:07:05.504Z,73.91
2022-11-19T19:09:34.632Z,73.88
2022-11-19T19:12:18.940Z,74.17
2022-11-19T19:14:52.621Z,73.96
2022-11-19T19:17:21.924Z,74.00
2022-11-19T19:19:51.098Z,73.37
2022-11-19T19:22:21.296Z,73.77
2022-11-19T19:24:56.702Z,74.08
2022-11-19T19:27:27.610Z,73.93
2022-11-19T19:29:59.196Z,73.22
2022-11-19T19:32:28.083Z,73.63
2022-11-19T19:34:57.191Z,73.88
2022-11-19T19:37:27.541Z,73.92
2022-11-19T19:39:56.692Z,73.78
2022-11-19T19:42:25.999Z,73.94
2022-11-19T19:44:55.321Z,73.20
2022-11-19T19:47:26.519Z,74.23
2022-11-19T19:49:56.524Z,74.21
2022-11-19T19:52:26.190Z,74.88
2022-11-19T19:54:55.648Z,74.85
2022-11-19T19:57:24.654Z,74.59
2022-11-19T19:59:54.612Z,74.63
2022-11-19T20:02:26.717Z,74.18
2022-11-19T20:04:56.801Z,74.11
2022-11-19T20:07:25.999Z,74.47
2022-11-19T20:09:55.342Z,74.30
2022-11-19T20:12:45.531Z,74.97
2022-11-19T20:15:15.468Z,74.79
2022-11-19T20:17:45.431Z,74.82
2022-11-19T20:20:14.950Z,74.73
2022-11-19T20:22:43.936Z,74.15
2022-11-19T20:25:13.773Z,73.88
2022-11-19T20:27:42.765Z,75.17
2022-11-19T20:30:13.382Z,75.28
2022-11-19T20:32:42.459Z,75.65
2022-11-19T20:35:13.751Z,76.32
2022-11-19T20:37:43.223Z,76.44
2022-11-19T20:40:12.925Z,76.34
2022-11-19T20:42:59.062Z,76.74
2022-11-19T20:45:28.616Z,76.74
2022-11-19T20:47:57.975Z,77.16
2022-11-19T20:50:29.202Z,76.33
2022-11-19T20:52:58.366Z,76.69
2022-11-19T20:55:27.454Z,77.28
2022-11-19T20:57:58.240Z,77.30
2022-11-19T21:00:27.308Z,76.91
2022-11-19T21:02:57.232Z,77.45
2022-11-19T21:05:28.258Z,76.75
2022-11-19T21:07:57.566Z,77.16
2022-11-19T21:10:26.570Z,76.39
2022-11-19T21:13:05.050Z,77.14
2022-11-19T21:15:36.782Z,77.58
2022-11-19T21:18:06.924Z,76.51
2022-11-19T21:20:37.420Z,77.13
2022-11-19T21:23:06.325Z,76.91
2022-11-19T21:25:35.095Z,77.28
2022-11-19T21:28:03.604Z,77.08
2022-11-19T21:30:31.952Z,76.93
2022-11-19T21:33:02.744Z,77.30
2022-11-19T21:35:31.003Z,77.05
2022-11-19T21:38:00.481Z,76.87
2022-11-19T21:40:29.291Z,76.78
2022-11-19T21:42:57.755Z,77.50
2022-11-19T21:45:26.134Z,77.66
2022-11-19T21:47:54.531Z,77.66
2022-11-19T21:50:23.122Z,78.06
2022-11-19T21:52:51.476Z,78.59
2022-11-19T21:55:21.145Z,78.40
2022-11-19T21:57:49.316Z,77.85
2022-11-19T22:00:17.844Z,78.25
2022-11-19T22:02:46.022Z,78.46
2022-11-19T22:05:14.609Z,77.55
2022-11-19T22:07:43.594Z,77.81
2022-11-19T22:10:11.672Z,77.50
2022-11-19T22:12:41.119Z,77.39
2022-11-19T22:15:10.541Z,77.63
2022-11-19T22:17:39.451Z,78.28
2022-11-19T22:20:08.358Z,78.57
2022-11-19T22:22:36.423Z,78.45
2022-11-19T22:25:04.690Z,78.21
2022-11-19T22:27:32.792Z,77.57
2022-11-19T22:30:05.882Z,78.24
2022-11-19T22:32:34.470Z,78.28
2022-11-19T22:35:02.513Z,78.51
2022-11-19T22:37:30.611Z,78.27
2022-11-19T22:39:58.735Z,78.58
2022-11-19T22:42:26.804Z,78.86
2022-11-19T22:44:54.901Z,79.17
2022-11-19T22:47:24.354Z,78.72
2022-11-19T22:49:52.404Z,79.14
2022-11-19T22:52:20.488Z,79.31
2022-11-19T22:54:48.535Z,79.25
2022-11-19T22:57:17.764Z,79.37
2022-11-19T22:59:45.800Z,79.48
2022-11-19T23:02:13.832Z,80.28
2022-11-19T23:04:43.244Z,79.91
2022-11-19T23:07:11.446Z,79.81
2022-11-19T23:09:39.501Z,79.56
2022-11-19T23:12:25.152Z,80.25
2022-11-19T23:14:53.173Z,80.17
2022-11-19T23:17:21.309Z,80.75
2022-11-19T23:19:50.722Z,80.56
2022-11-19T23:22:18.756Z,81.18
2022-11-19T23:24:47.175Z,80.70
2022-11-19T23:27:19.335Z,81.80
2022-11-19T23:29:49.965Z,81.57
2022-11-19T23:32:18.053Z,81.65
2022-11-19T23:34:46.494Z,80.94
2022-11-19T23:37:15.911Z,80.60
2022-11-19T23:39:43.957Z,80.43
2022-11-19T23:42:11.977Z,80.18
2022-11-19T23:44:39.953Z,80.31
2022-11-19T23:47:08.517Z,79.45
2022-11-19T23:49:36.543Z,78.67
2022-11-19T23:52:04.755Z,79.92
2022-11-19T23:54:34.289Z,79.76
2022-11-19T23:57:02.455Z,81.08
2022-11-19T23:59:30.842Z,80.63
